Time;durP1;ratioP1;P1;durP2;ratioP2;P2;SDS_P1;SDS_P2;PMS_P1;PMS_P2;Temp;Humidity;BMP_temperature;BMP_pressure;BME280_temperature;BME280_humidity;BME280_pressure;Samples;Min_cycle;Max_cycle;Signal;HPM_P1;HPM_P2
2021/10/03 00:01:57;;;;;;;14.65;7.28;;;15.20;99.90;;;;;;5093678;28;20365;-72
2021/10/03 00:04:25;;;;;;;9.18;4.43;;;15.10;99.90;;;;;;5093364;28;20028;-72
2021/10/03 00:06:53;;;;;;;5.88;3.05;;;15.00;99.90;;;;;;5093375;28;20024;-72
2021/10/03 00:09:19;;;;;;;4.68;2.40;;;15.10;99.90;;;;;;5093658;28;20124;-71
2021/10/03 00:11:45;;;;;;;5.82;1.73;;;15.20;99.90;;;;;;5093651;28;20480;-72
2021/10/03 00:14:12;;;;;;;3.47;1.50;;;15.10;99.90;;;;;;5093266;28;20031;-72
2021/10/03 00:16:40;;;;;;;4.53;1.65;;;15.10;99.90;;;;;;5093585;28;20028;-72
2021/10/03 00:19:06;;;;;;;3.00;1.60;;;14.80;99.90;;;;;;5093570;28;20028;-72
2021/10/03 00:21:32;;;;;;;3.08;1.50;;;14.70;99.90;;;;;;5093182;28;20480;-72
2021/10/03 00:23:58;;;;;;;4.05;1.77;;;14.70;99.90;;;;;;5093436;28;20105;-71
2021/10/03 00:26:24;;;;;;;2.40;1.83;;;14.80;99.90;;;;;;5093509;28;20463;-71
2021/10/03 00:28:49;;;;;;;5.00;2.30;;;14.80;99.90;;;;;;5093152;28;20426;-71
2021/10/03 00:31:15;;;;;;;5.05;2.10;;;14.90;99.90;;;;;;5093177;28;20070;-72
2021/10/03 00:33:41;;;;;;;3.78;1.83;;;14.90;99.90;;;;;;5093113;28;20376;-71
2021/10/03 00:36:06;;;;;;;3.00;1.73;;;14.80;99.90;;;;;;5093125;28;20528;-72
2021/10/03 00:38:32;;;;;;;3.33;1.77;;;14.80;99.90;;;;;;5093079;28;20032;-73
2021/10/03 00:40:59;;;;;;;3.80;1.92;;;14.70;99.90;;;;;;5093082;28;20031;-71
2021/10/03 00:43:25;;;;;;;3.35;2.15;;;14.80;99.90;;;;;;5093630;28;20020;-71
2021/10/03 00:45:51;;;;;;;13.68;7.80;;;14.80;99.90;;;;;;5093467;28;20092;-73
2021/10/03 00:48:17;;;;;;;13.43;5.78;;;14.80;99.90;;;;;;5096008;28;20069;-71
2021/10/03 00:50:45;;;;;;;4.60;1.70;;;14.90;99.90;;;;;;5096919;28;20426;-71
2021/10/03 00:53:12;;;;;;;3.08;1.90;;;15.00;99.90;;;;;;5096849;28;20048;-71
2021/10/03 00:55:39;;;;;;;5.03;2.13;;;15.00;99.90;;;;;;5097033;28;20676;-72
2021/10/03 00:58:05;;;;;;;5.43;2.08;;;15.00;99.90;;;;;;5096729;28;20024;-72
2021/10/03 01:00:32;;;;;;;8.75;4.18;;;15.00;99.90;;;;;;5096734;28;20062;-72
2021/10/03 01:03:03;;;;;;;5.68;2.65;;;15.10;99.90;;;;;;5096640;28;20016;-72
2021/10/03 01:05:30;;;;;;;3.47;1.80;;;15.10;99.90;;;;;;5096825;28;20034;-72
2021/10/03 01:07:55;;;;;;;2.70;1.60;;;15.10;99.90;;;;;;5096575;28;20092;-72
2021/10/03 01:10:24;;;;;;;2.40;1.30;;;15.00;99.90;;;;;;5096631;28;20075;-72
2021/10/03 01:13:12;;;;;;;1.77;1.23;;;15.00;99.90;;;;;;5096491;28;20024;-71
2021/10/03 01:15:41;;;;;;;3.08;1.20;;;14.90;99.90;;;;;;5097011;28;20131;-72
2021/10/03 01:18:08;;;;;;;3.25;1.20;;;14.90;99.90;;;;;;5096395;28;20052;-71
2021/10/03 01:20:34;;;;;;;2.53;1.02;;;14.90;99.90;;;;;;5096277;28;20447;-71
2021/10/03 01:23:06;;;;;;;1.55;1.13;;;15.00;99.90;;;;;;5096298;28;20045;-72
2021/10/03 01:25:35;;;;;;;6.82;2.60;;;14.90;99.90;;;;;;5096244;28;20067;-73
2021/10/03 01:28:01;;;;;;;4.85;1.73;;;14.90;99.90;;;;;;5096244;28;20012;-72
2021/10/03 01:30:27;;;;;;;4.63;2.00;;;14.90;99.90;;;;;;5096113;28;20027;-71
2021/10/03 01:32:53;;;;;;;2.63;1.45;;;14.90;99.90;;;;;;5096098;28;20020;-71
2021/10/03 01:35:19;;;;;;;3.10;1.30;;;14.90;99.90;;;;;;5096046;28;20030;-71
2021/10/03 01:37:45;;;;;;;3.35;1.25;;;14.70;99.90;;;;;;5095999;28;20020;-72
2021/10/03 01:40:12;;;;;;;1.52;1.15;;;14.70;99.90;;;;;;5096516;28;20039;-72
2021/10/03 01:42:39;;;;;;;1.73;1.00;;;14.80;99.90;;;;;;5095907;28;20025;-72
2021/10/03 01:45:08;;;;;;;5.55;1.40;;;14.90;99.90;;;;;;5095812;28;20047;-72
2021/10/03 01:47:34;;;;;;;2.67;1.45;;;14.70;99.90;;;;;;5095841;28;20099;-71
2021/10/03 01:49:59;;;;;;;2.17;1.13;;;14.60;99.90;;;;;;5095761;28;20463;-72
2021/10/03 01:52:25;;;;;;;4.40;1.00;;;14.60;99.90;;;;;;5095728;28;20020;-72
2021/10/03 01:54:51;;;;;;;3.15;1.20;;;14.50;99.90;;;;;;5095684;28;20058;-72
2021/10/03 01:57:16;;;;;;;1.60;0.98;;;14.40;99.90;;;;;;5095603;28;20020;-72
2021/10/03 01:59:42;;;;;;;2.17;1.00;;;14.40;99.90;;;;;;5095384;28;20028;-71
2021/10/03 02:02:08;;;;;;;2.28;1.00;;;14.40;99.90;;;;;;5095767;28;20024;-72
2021/10/03 02:04:33;;;;;;;3.65;1.10;;;14.30;99.90;;;;;;5095999;28;20093;-72
2021/10/03 02:06:59;;;;;;;2.33;1.00;;;14.30;99.90;;;;;;5095412;28;20020;-72
2021/10/03 02:09:27;;;;;;;3.42;1.30;;;14.40;99.90;;;;;;5095176;28;20048;-72
2021/10/03 02:11:58;;;;;;;3.20;1.20;;;14.40;99.90;;;;;;5093824;28;20404;-72
2021/10/03 02:14:27;;;;;;;1.63;0.93;;;14.30;99.90;;;;;;5095632;28;20024;-72
2021/10/03 02:16:59;;;;;;;2.90;1.10;;;14.40;99.90;;;;;;5095239;28;20020;-73
2021/10/03 02:19:27;;;;;;;2.60;1.10;;;14.60;99.90;;;;;;5095799;28;20028;-71
2021/10/03 02:21:53;;;;;;;2.53;1.10;;;14.50;99.90;;;;;;5095100;28;20020;-72
2021/10/03 02:24:19;;;;;;;1.67;1.00;;;14.60;99.90;;;;;;5095054;28;20395;-71
2021/10/03 02:26:45;;;;;;;3.28;1.23;;;14.60;99.90;;;;;;5095293;28;20103;-72
2021/10/03 02:29:11;;;;;;;5.40;1.63;;;14.40;99.90;;;;;;5095294;28;20094;-71
2021/10/03 02:31:37;;;;;;;2.78;0.90;;;14.30;99.90;;;;;;5094989;28;20016;-71
2021/10/03 02:34:03;;;;;;;2.85;1.23;;;14.40;99.90;;;;;;5093633;28;20077;-72
2021/10/03 02:36:30;;;;;;;3.30;1.20;;;14.50;99.90;;;;;;5094854;28;20020;-71
2021/10/03 02:38:56;;;;;;;1.98;1.05;;;14.40;99.90;;;;;;5094844;28;20024;-71
2021/10/03 02:41:22;;;;;;;2.17;1.83;;;14.40;99.90;;;;;;5095034;28;20069;-72
2021/10/03 02:43:52;;;;;;;5.05;2.10;;;14.40;99.90;;;;;;5095252;28;20056;-71
2021/10/03 02:46:19;;;;;;;2.33;1.80;;;14.30;99.90;;;;;;5094567;28;20476;-71
2021/10/03 02:48:50;;;;;;;4.32;2.25;;;14.30;99.90;;;;;;5094916;28;20067;-71
2021/10/03 02:51:21;;;;;;;4.13;2.53;;;14.30;99.90;;;;;;5094591;28;20056;-71
2021/10/03 02:53:47;;;;;;;;;;;14.40;99.90;;;;;;5095263;28;20111;-72
2021/10/03 02:56:17;;;;;;;3.72;2.45;;;14.40;99.90;;;;;;5094517;28;19911;-72
2021/10/03 02:58:43;;;;;;;3.80;2.30;;;14.40;99.90;;;;;;5094988;28;20076;-71
2021/10/03 03:01:09;;;;;;;3.00;2.50;;;14.40;99.90;;;;;;5094661;28;20027;-71
2021/10/03 03:03:36;;;;;;;4.70;2.55;;;14.40;99.90;;;;;;5094409;28;20098;-71
2021/10/03 03:06:04;;;;;;;4.93;2.00;;;14.40;99.90;;;;;;5094240;28;20024;-72
2021/10/03 03:08:30;;;;;;;3.53;2.00;;;14.40;99.90;;;;;;5094264;28;20021;-71
2021/10/03 03:10:56;;;;;;;2.90;1.92;;;14.40;99.90;;;;;;5093252;28;20051;-71
2021/10/03 03:13:21;;;;;;;3.38;1.80;;;14.30;99.90;;;;;;5094162;28;20020;-71
2021/10/03 03:15:47;;;;;;;3.67;1.88;;;14.40;99.90;;;;;;5094094;28;20060;-71
2021/10/03 03:18:13;;;;;;;2.47;1.80;;;14.30;99.90;;;;;;5094114;28;20028;-72
2021/10/03 03:20:39;;;;;;;4.32;1.85;;;14.30;99.90;;;;;;5093973;28;20468;-71
2021/10/03 03:23:04;;;;;;;3.60;1.77;;;14.40;99.90;;;;;;5094299;28;20055;-71
2021/10/03 03:25:30;;;;;;;2.83;1.90;;;14.30;99.90;;;;;;5093882;28;20028;-71
2021/10/03 03:27:56;;;;;;;1.92;1.70;;;14.30;99.90;;;;;;5093923;28;20020;-71
2021/10/03 03:30:21;;;;;;;2.65;1.80;;;14.40;99.90;;;;;;5093908;28;20524;-71
2021/10/03 03:32:47;;;;;;;3.28;1.90;;;14.40;99.90;;;;;;5093833;28;20467;-73
2021/10/03 03:35:13;;;;;;;2.00;1.80;;;14.40;99.90;;;;;;5094352;28;20035;-71
2021/10/03 03:37:41;;;;;;;2.58;1.90;;;14.40;99.90;;;;;;5093785;28;20027;-72
2021/10/03 03:40:09;;;;;;;4.78;1.90;;;14.40;99.90;;;;;;5093701;28;20030;-72
2021/10/03 03:42:34;;;;;;;3.63;2.15;;;14.40;99.90;;;;;;5093694;28;20035;-71
2021/10/03 03:45:00;;;;;;;3.28;1.98;;;14.40;99.90;;;;;;5093837;28;20036;-71
2021/10/03 03:47:26;;;;;;;3.35;1.85;;;14.40;99.90;;;;;;5093608;28;20020;-72
2021/10/03 03:49:51;;;;;;;2.50;1.85;;;14.40;99.90;;;;;;5093873;28;20028;-72
2021/10/03 03:52:20;;;;;;;2.20;2.00;;;14.40;99.90;;;;;;5093536;28;20020;-71
2021/10/03 03:54:46;;;;;;;3.10;1.80;;;14.40;99.90;;;;;;5093509;28;20054;-71
2021/10/03 03:57:13;;;;;;;2.25;1.80;;;14.40;99.90;;;;;;5093464;28;20027;-71
2021/10/03 03:59:39;;;;;;;2.80;1.83;;;14.30;99.90;;;;;;5093729;28;20024;-72
2021/10/03 04:02:05;;;;;;;1.52;1.40;;;14.40;99.90;;;;;;5093458;28;20444;-71
2021/10/03 04:04:30;;;;;;;2.80;1.60;;;14.40;99.90;;;;;;5093862;28;20032;-71
2021/10/03 04:06:56;;;;;;;3.70;1.90;;;14.40;99.90;;;;;;5093671;28;20020;-72
2021/10/03 04:09:21;;;;;;;1.73;1.42;;;14.30;99.90;;;;;;5093437;28;20059;-72
2021/10/03 04:11:47;;;;;;;3.97;1.25;;;14.30;99.90;;;;;;5093677;28;20024;-72
2021/10/03 04:14:13;;;;;;;2.75;1.30;;;14.30;99.90;;;;;;5093619;28;20027;-72
2021/10/03 04:16:38;;;;;;;2.40;1.23;;;14.30;99.90;;;;;;5093578;28;20020;-71
2021/10/03 04:19:04;;;;;;;3.50;1.10;;;14.40;99.90;;;;;;5093296;28;20020;-71
2021/10/03 04:21:30;;;;;;;4.35;1.50;;;14.30;99.90;;;;;;5093336;28;20065;-72
2021/10/03 04:23:56;;;;;;;1.73;1.05;;;14.30;99.90;;;;;;5097299;28;20197;-71
2021/10/03 04:26:22;;;;;;;3.53;1.25;;;14.30;99.90;;;;;;5097568;28;20024;-71
2021/10/03 04:28:47;;;;;;;2.22;1.73;;;14.20;99.90;;;;;;5097336;28;20027;-72
2021/10/03 04:31:13;;;;;;;2.72;1.27;;;14.20;99.90;;;;;;5097228;28;20380;-72
2021/10/03 04:33:41;;;;;;;1.77;1.15;;;14.10;99.90;;;;;;5097504;28;20099;-71
2021/10/03 04:36:08;;;;;;;1.95;1.08;;;14.10;99.90;;;;;;5097210;28;20468;-71
2021/10/03 04:38:34;;;;;;;2.45;0.90;;;14.10;99.90;;;;;;5097161;28;20052;-71
2021/10/03 04:41:00;;;;;;;5.97;0.90;;;14.00;99.90;;;;;;5097388;28;20465;-71
2021/10/03 04:43:26;;;;;;;2.22;1.00;;;14.00;99.90;;;;;;5097342;28;20042;-71
2021/10/03 04:45:51;;;;;;;4.18;1.92;;;14.10;99.90;;;;;;5097197;28;20024;-72
2021/10/03 04:48:17;;;;;;;1.77;0.70;;;14.10;99.90;;;;;;5097284;28;20020;-71
2021/10/03 04:50:42;;;;;;;2.13;0.77;;;14.00;99.90;;;;;;5097471;28;20020;-72
2021/10/03 04:53:08;;;;;;;2.10;0.90;;;14.00;99.90;;;;;;5096902;28;20028;-72
2021/10/03 04:55:34;;;;;;;2.83;0.50;;;14.00;99.90;;;;;;5096815;28;20369;-72
2021/10/03 04:57:59;;;;;;;2.58;0.75;;;13.90;99.90;;;;;;5097049;28;20035;-72
2021/10/03 05:00:25;;;;;;;3.03;0.60;;;13.90;99.90;;;;;;5096780;28;20028;-72
2021/10/03 05:02:51;;;;;;;1.70;0.77;;;13.80;99.90;;;;;;5097013;28;20047;-72
2021/10/03 05:05:16;;;;;;;2.13;0.68;;;13.80;99.90;;;;;;5096588;28;20050;-71
2021/10/03 05:07:42;;;;;;;2.42;0.90;;;13.80;99.90;;;;;;5096854;28;20072;-71
2021/10/03 05:10:08;;;;;;;2.13;0.60;;;13.80;99.90;;;;;;5096453;28;20115;-71
2021/10/03 05:12:33;;;;;;;1.55;0.80;;;13.70;99.90;;;;;;5097102;28;20395;-71
2021/10/03 05:14:59;;;;;;;1.77;0.82;;;13.60;99.90;;;;;;5096762;28;20578;-72
2021/10/03 05:17:25;;;;;;;1.83;0.75;;;13.60;99.90;;;;;;5096466;28;20476;-71
2021/10/03 05:19:50;;;;;;;1.52;0.77;;;13.60;99.90;;;;;;5096307;28;20066;-71
2021/10/03 05:22:16;;;;;;;1.40;0.63;;;13.60;99.90;;;;;;5096367;28;20063;-71
2021/10/03 05:24:42;;;;;;;3.35;1.00;;;13.60;99.90;;;;;;5096519;28;20066;-71
2021/10/03 05:27:08;;;;;;;2.80;0.60;;;13.70;99.90;;;;;;5096275;28;20032;-72
2021/10/03 05:29:33;;;;;;;1.38;0.80;;;13.60;99.90;;;;;;5096745;28;20024;-72
2021/10/03 05:31:59;;;;;;;3.65;1.10;;;13.60;99.90;;;;;;5096167;28;20023;-71
2021/10/03 05:34:24;;;;;;;3.22;0.82;;;13.60;99.90;;;;;;5095781;28;20480;-72
2021/10/03 05:36:50;;;;;;;2.08;0.75;;;13.60;99.90;;;;;;5096031;28;20077;-72
2021/10/03 05:39:16;;;;;;;3.22;0.60;;;13.50;99.90;;;;;;5096042;28;20028;-71
2021/10/03 05:41:42;;;;;;;3.05;0.98;;;13.40;99.90;;;;;;5096514;28;20020;-72
2021/10/03 05:44:07;;;;;;;1.42;0.70;;;13.50;99.90;;;;;;5095844;28;20024;-71
2021/10/03 05:46:33;;;;;;;1.33;0.63;;;13.40;99.90;;;;;;5096162;28;20028;-72
2021/10/03 05:48:59;;;;;;;1.00;0.50;;;13.30;99.90;;;;;;5095852;28;20025;-73
2021/10/03 05:51:25;;;;;;;4.47;0.88;;;13.20;99.90;;;;;;5096103;28;20035;-72
2021/10/03 05:53:51;;;;;;;1.85;0.70;;;13.20;99.90;;;;;;5095744;28;20384;-72
2021/10/03 05:56:16;;;;;;;1.55;0.70;;;13.20;99.90;;;;;;5095670;28;20032;-72
2021/10/03 05:58:42;;;;;;;5.35;0.82;;;13.10;99.90;;;;;;5095690;28;20020;-71
2021/10/03 06:01:07;;;;;;;1.83;0.45;;;13.10;99.90;;;;;;5095587;28;20082;-72
2021/10/03 06:03:33;;;;;;;1.15;0.50;;;13.10;99.90;;;;;;5095844;28;20422;-72
2021/10/03 06:05:59;;;;;;;0.85;0.52;;;13.10;99.90;;;;;;5095732;28;20024;-72
2021/10/03 06:08:24;;;;;;;2.40;0.75;;;13.10;99.90;;;;;;5096023;28;20077;-72
2021/10/03 06:10:50;;;;;;;3.42;0.73;;;13.00;99.90;;;;;;5095172;28;20044;-72
2021/10/03 06:13:16;;;;;;;2.67;0.98;;;13.00;99.90;;;;;;5095360;28;20051;-71
2021/10/03 06:15:43;;;;;;;3.17;0.60;;;13.00;99.90;;;;;;5095614;28;20028;-71
2021/10/03 06:18:14;;;;;;;3.75;0.88;;;13.00;99.90;;;;;;5095509;28;20065;-72
2021/10/03 06:20:40;;;;;;;2.08;0.77;;;13.00;99.90;;;;;;5095156;28;20024;-72
2021/10/03 06:23:07;;;;;;;2.08;1.02;;;13.00;99.90;;;;;;5095173;28;20024;-71
2021/10/03 06:25:33;;;;;;;4.05;0.90;;;13.10;99.90;;;;;;5095007;28;20389;-71
2021/10/03 06:27:58;;;;;;;3.60;0.65;;;13.10;99.90;;;;;;5095074;28;20020;-71
2021/10/03 06:30:24;;;;;;;0.98;0.60;;;13.10;99.90;;;;;;5095587;28;20051;-71
2021/10/03 06:32:50;;;;;;;1.63;0.73;;;13.10;99.90;;;;;;5095536;28;20020;-71
2021/10/03 06:35:16;;;;;;;4.28;1.40;;;13.10;99.90;;;;;;5094907;28;20058;-72
2021/10/03 06:37:42;;;;;;;2.58;0.75;;;13.20;99.90;;;;;;5095128;28;20052;-71
2021/10/03 06:40:08;;;;;;;2.15;0.65;;;13.10;99.90;;;;;;5094826;28;20063;-72
2021/10/03 06:42:34;;;;;;;2.38;0.65;;;13.20;99.90;;;;;;5094805;28;20023;-72
2021/10/03 06:45:00;;;;;;;1.85;0.90;;;13.20;99.90;;;;;;5093707;28;20028;-72
2021/10/03 06:47:25;;;;;;;4.07;0.80;;;13.10;99.90;;;;;;5094678;28;20054;-71
2021/10/03 06:49:51;;;;;;;3.65;0.85;;;13.10;99.90;;;;;;5094886;28;20474;-71
2021/10/03 06:52:17;;;;;;;2.20;0.88;;;13.10;99.90;;;;;;5094840;28;20020;-73
2021/10/03 06:54:44;;;;;;;4.72;0.80;;;13.10;99.90;;;;;;5094470;28;20051;-72
2021/10/03 06:57:10;;;;;;;2.47;0.95;;;13.10;99.90;;;;;;5094756;28;20054;-71
2021/10/03 06:59:36;;;;;;;6.70;1.00;;;13.10;99.90;;;;;;5094792;28;20064;-72
2021/10/03 07:02:10;;;;;;;4.03;0.88;;;13.20;99.90;;;;;;5094454;28;20543;-72
2021/10/03 07:04:35;;;;;;;2.78;0.80;;;13.20;99.90;;;;;;5094637;28;20464;-71
2021/10/03 07:07:01;;;;;;;3.50;1.25;;;13.10;99.90;;;;;;5094663;28;20099;-71
2021/10/03 07:09:27;;;;;;;3.53;1.13;;;13.10;99.90;;;;;;5094068;28;20056;-72
2021/10/03 07:11:54;;;;;;;5.38;1.75;;;13.20;99.90;;;;;;5094845;28;20052;-71
2021/10/03 07:14:21;;;;;;;4.93;1.92;;;13.20;99.90;;;;;;5094205;28;20024;-71
2021/10/03 07:16:47;;;;;;;1.40;0.90;;;13.30;99.90;;;;;;5094689;28;20031;-71
2021/10/03 07:19:13;;;;;;;11.88;2.58;;;13.30;99.90;;;;;;5094099;28;20020;-71
2021/10/03 07:21:39;;;;;;;2.78;1.30;;;13.30;99.90;;;;;;5094241;28;20016;-73
2021/10/03 07:24:04;;;;;;;5.00;1.77;;;13.20;99.90;;;;;;5094553;28;20080;-72
2021/10/03 07:26:30;;;;;;;6.07;4.38;;;13.20;99.90;;;;;;5093882;28;20062;-73
2021/10/03 07:28:56;;;;;;;5.72;2.53;;;13.20;99.90;;;;;;5093931;28;20068;-71
2021/10/03 07:31:22;;;;;;;6.57;2.13;;;13.20;99.90;;;;;;5093920;28;20023;-72
2021/10/03 07:33:48;;;;;;;3.97;1.20;;;13.20;99.90;;;;;;5094084;28;20411;-72
2021/10/03 07:36:19;;;;;;;3.13;1.40;;;13.30;99.90;;;;;;5092557;28;20028;-72
2021/10/03 07:38:44;;;;;;;;;;;13.40;99.90;;;;;;5094801;28;20032;-72
2021/10/03 07:41:10;;;;;;;2.90;1.30;;;13.50;99.90;;;;;;5093719;28;20364;-71
2021/10/03 07:43:35;;;;;;;6.93;2.08;;;13.40;99.90;;;;;;5093684;28;20028;-71
2021/10/03 07:46:01;;;;;;;4.63;1.52;;;13.40;99.90;;;;;;5093625;28;20373;-71
2021/10/03 07:48:27;;;;;;;2.30;1.25;;;13.50;99.90;;;;;;5093695;28;20452;-71
2021/10/03 07:50:52;;;;;;;2.70;1.10;;;13.60;99.90;;;;;;5093598;28;20488;-72
2021/10/03 07:53:18;;;;;;;2.55;1.13;;;13.80;99.90;;;;;;5093884;28;20103;-71
2021/10/03 07:55:44;;;;;;;4.20;1.10;;;13.90;99.90;;;;;;5093310;28;20072;-73
2021/10/03 07:58:10;;;;;;;2.28;0.90;;;13.90;99.90;;;;;;5094049;28;20020;-72
2021/10/03 08:00:36;;;;;;;1.35;1.00;;;13.80;99.90;;;;;;5094056;28;20028;-72
2021/10/03 08:03:02;;;;;;;4.43;1.25;;;14.10;99.90;;;;;;5093667;28;20046;-71
2021/10/03 08:05:29;;;;;;;2.47;0.80;;;14.50;99.90;;;;;;5093344;28;20387;-71
2021/10/03 08:07:54;;;;;;;4.88;1.48;;;14.60;99.90;;;;;;5093433;28;20441;-72
2021/10/03 08:10:21;;;;;;;1.45;0.80;;;14.50;99.90;;;;;;5093349;28;20056;-72
2021/10/03 08:12:47;;;;;;;5.80;1.00;;;14.40;99.90;;;;;;5093631;28;20099;-72
2021/10/03 08:15:13;;;;;;;2.67;0.82;;;14.30;99.90;;;;;;5093594;28;20028;-72
2021/10/03 08:17:39;;;;;;;3.30;1.20;;;14.80;99.90;;;;;;5093229;28;20069;-71
2021/10/03 08:20:05;;;;;;;1.65;0.82;;;15.30;99.90;;;;;;5093215;28;20035;-72
2021/10/03 08:22:31;;;;;;;2.00;0.80;;;15.60;99.90;;;;;;5093878;28;20425;-71
2021/10/03 08:24:57;;;;;;;2.78;0.80;;;15.50;99.90;;;;;;5093194;28;20107;-72
2021/10/03 08:27:22;;;;;;;2.00;0.60;;;15.60;99.90;;;;;;5093263;28;20020;-73
2021/10/03 08:29:48;;;;;;;3.65;0.70;;;15.90;99.90;;;;;;5093235;28;20024;-71
2021/10/03 08:32:14;;;;;;;2.67;0.77;;;16.10;99.90;;;;;;5093202;28;20493;-72
2021/10/03 08:34:40;;;;;;;1.30;0.60;;;16.50;99.90;;;;;;5093175;28;20060;-72
2021/10/03 08:37:05;;;;;;;1.13;0.52;;;16.70;99.90;;;;;;5093127;28;20052;-71
2021/10/03 08:39:31;;;;;;;3.22;1.05;;;17.10;99.90;;;;;;5093088;28;20036;-72
2021/10/03 08:41:57;;;;;;;3.70;1.08;;;17.30;99.90;;;;;;5093321;28;20029;-73
2021/10/03 08:44:26;;;;;;;1.95;0.52;;;17.80;99.90;;;;;;5093526;28;20189;-72
2021/10/03 08:46:52;;;;;;;3.63;0.77;;;18.00;99.90;;;;;;5093305;28;20024;-72
2021/10/03 08:49:18;;;;;;;3.47;0.80;;;18.20;99.90;;;;;;5093054;28;20024;-73
2021/10/03 08:51:47;;;;;;;4.15;0.60;;;18.40;99.90;;;;;;5093257;28;20043;-71
2021/10/03 08:54:14;;;;;;;2.55;0.93;;;18.70;99.90;;;;;;5093298;28;20099;-72
2021/10/03 08:56:41;;;;;;;2.70;0.93;;;18.80;99.90;;;;;;5092976;28;20023;-72
2021/10/03 08:59:06;;;;;;;2.53;0.90;;;19.00;99.10;;;;;;5093527;28;20031;-73
2021/10/03 09:01:50;;;;;;;1.95;0.77;;;19.30;98.70;;;;;;5092925;28;20376;-73
2021/10/03 09:04:33;;;;;;;2.55;0.80;;;19.60;96.50;;;;;;5093122;28;20056;-72
2021/10/03 09:07:01;;;;;;;7.38;1.33;;;19.60;96.80;;;;;;5093174;28;20432;-72
2021/10/03 09:09:50;;;;;;;4.20;1.20;;;19.90;96.30;;;;;;5095774;28;20046;-72
2021/10/03 09:12:36;;;;;;;0.68;0.52;;;20.40;95.20;;;;;;5096628;28;20465;-74
2021/10/03 09:15:14;;;;;;;2.63;0.68;;;20.40;93.50;;;;;;5096882;28;20035;-73
2021/10/03 09:17:40;;;;;;;3.67;0.60;;;20.60;93.30;;;;;;5096751;28;20532;-71
2021/10/03 09:20:08;;;;;;;4.13;0.90;;;20.80;92.70;;;;;;5096325;28;20060;-73
2021/10/03 09:23:03;;;;;;;3.42;1.17;;;21.00;93.30;;;;;;5096408;28;20035;-71
2021/10/03 09:25:37;;;;;;;2.25;0.90;;;21.10;91.50;;;;;;5066315;28;20040;-72
2021/10/03 09:28:05;;;;;;;3.65;1.00;;;21.40;92.10;;;;;;5096548;28;20028;-71
2021/10/03 09:30:30;;;;;;;2.47;0.80;;;21.50;90.30;;;;;;5096479;28;20020;-72
2021/10/03 09:32:58;;;;;;;1.60;0.88;;;21.40;91.10;;;;;;5096182;28;20035;-73
2021/10/03 09:35:32;;;;;;;2.95;0.90;;;21.50;90.40;;;;;;5096149;28;20400;-73
2021/10/03 09:37:58;;;;;;;4.15;1.15;;;21.20;90.30;;;;;;5096060;28;20031;-73
2021/10/03 09:40:25;;;;;;;3.13;0.73;;;21.10;90.50;;;;;;5095985;28;20032;-73
2021/10/03 09:43:04;;;;;;;3.95;1.15;;;20.90;93.60;;;;;;5095975;28;20027;-71
2021/10/03 09:45:31;;;;;;;3.03;0.95;;;20.80;92.10;;;;;;5096182;28;20077;-72
2021/10/03 09:48:03;;;;;;;3.88;1.25;;;20.40;91.80;;;;;;5095868;28;20032;-72
2021/10/03 09:50:30;;;;;;;2.65;0.80;;;20.40;93.50;;;;;;5095802;28;20048;-73
2021/10/03 09:52:59;;;;;;;4.25;1.15;;;20.60;91.90;;;;;;5096089;28;20099;-71
2021/10/03 09:55:25;;;;;;;3.83;0.73;;;20.80;90.80;;;;;;5095746;28;20028;-72
2021/10/03 09:57:56;;;;;;;3.58;1.05;;;20.80;91.60;;;;;;5095983;28;20478;-72
2021/10/03 10:00:24;;;;;;;3.10;1.00;;;20.40;92.60;;;;;;5095674;28;20473;-74
2021/10/03 10:02:51;;;;;;;5.28;1.30;;;20.40;92.70;;;;;;5095780;28;20031;-72
2021/10/03 10:05:23;;;;;;;1.40;0.90;;;20.30;92.60;;;;;;5095464;28;20051;-73
2021/10/03 10:07:49;;;;;;;3.45;0.90;;;20.10;92.30;;;;;;5095766;28;20020;-72
2021/10/03 10:10:15;;;;;;;3.42;1.05;;;19.90;91.30;;;;;;5095228;28;20071;-71
2021/10/03 10:12:52;;;;;;;5.35;1.40;;;19.90;91.80;;;;;;5095384;28;20027;-73
2021/10/03 10:15:22;;;;;;;2.10;0.90;;;19.80;91.00;;;;;;5095945;28;20034;-72
2021/10/03 10:17:48;;;;;;;3.78;0.80;;;19.30;92.00;;;;;;5095288;28;20024;-72
2021/10/03 10:20:24;;;;;;;3.65;0.80;;;19.10;93.40;;;;;;5095533;28;20039;-72
2021/10/03 10:22:55;;;;;;;3.65;0.70;;;18.90;92.20;;;;;;5095245;28;20023;-71
2021/10/03 10:25:39;;;;;;;2.90;0.75;;;18.90;94.90;;;;;;5095365;28;20107;-73
2021/10/03 10:28:14;;;;;;;2.92;0.90;;;18.80;91.90;;;;;;5095451;28;20016;-72
2021/10/03 10:31:06;;;;;;;3.95;0.70;;;18.80;94.90;;;;;;5095303;28;20029;-72
2021/10/03 10:33:49;;;;;;;5.88;1.02;;;18.50;93.90;;;;;;5063905;28;20039;-71
2021/10/03 10:36:22;;;;;;;3.33;0.80;;;18.30;94.00;;;;;;5095218;28;20024;-72
2021/10/03 10:39:06;;;;;;;2.88;0.90;;;18.10;93.70;;;;;;5094880;28;20021;-72
2021/10/03 10:41:44;;;;;;;2.53;0.88;;;18.10;95.00;;;;;;5095162;28;20028;-72
2021/10/03 10:44:27;;;;;;;1.73;0.80;;;18.10;93.50;;;;;;5094941;28;20028;-72
2021/10/03 10:46:57;;;;;;;5.03;1.00;;;18.00;95.60;;;;;;5094756;28;20023;-72
2021/10/03 10:49:28;;;;;;;2.58;0.82;;;18.00;94.10;;;;;;5095040;28;20085;-72
2021/10/03 10:52:17;;;;;;;2.58;0.70;;;17.90;94.30;;;;;;5094669;28;20495;-71
2021/10/03 10:55:06;;;;;;;5.53;1.58;;;17.80;96.50;;;;;;5082425;28;20040;-73
2021/10/03 10:57:33;;;;;;;3.33;0.90;;;17.80;96.10;;;;;;5094473;28;20028;-71
2021/10/03 11:00:24;;;;;;;2.15;0.65;;;17.80;96.20;;;;;;5094782;28;20476;-72
2021/10/03 11:02:54;;;;;;;1.55;0.60;;;17.70;94.40;;;;;;5095038;28;20017;-72
2021/10/03 11:05:40;;;;;;;3.97;0.65;;;17.60;93.80;;;;;;5094595;28;20066;-73
2021/10/03 11:08:16;;;;;;;3.33;0.85;;;17.60;96.20;;;;;;5094686;28;20077;-71
2021/10/03 11:11:00;;;;;;;1.60;0.70;;;17.60;96.30;;;;;;5093972;28;20060;-72
2021/10/03 11:13:40;;;;;;;4.72;1.60;;;17.60;96.90;;;;;;5094788;28;20059;-71
2021/10/03 11:16:35;;;;;;;2.53;0.65;;;17.50;95.30;;;;;;5094525;28;20108;-71
2021/10/03 11:19:21;;;;;;;5.15;1.05;;;17.50;98.00;;;;;;5094429;28;20419;-72
2021/10/03 11:21:58;;;;;;;3.22;0.93;;;17.60;96.30;;;;;;5094025;28;20127;-73
2021/10/03 11:24:26;;;;;;;3.47;1.00;;;17.60;96.60;;;;;;5094283;28;20043;-72
2021/10/03 11:27:07;;;;;;;4.68;0.90;;;17.50;95.00;;;;;;5092703;28;20392;-72
2021/10/03 11:29:32;;;;;;;;;;;17.50;94.80;;;;;;5094708;28;20103;-71
2021/10/03 11:32:09;;;;;;;3.63;1.00;;;17.60;94.60;;;;;;5093708;28;19935;-72
2021/10/03 11:34:53;;;;;;;4.43;0.77;;;17.50;96.00;;;;;;5094455;28;20107;-71
2021/10/03 11:37:37;;;;;;;2.33;0.95;;;17.60;95.00;;;;;;5094354;28;20020;-73
2021/10/03 11:40:07;;;;;;;4.40;0.52;;;17.60;95.30;;;;;;5094113;28;20027;-72
2021/10/03 11:42:39;;;;;;;7.38;1.10;;;17.60;94.60;;;;;;5093984;28;20020;-71
2021/10/03 11:45:10;;;;;;;7.30;1.15;;;17.60;94.40;;;;;;5093966;28;20024;-71
2021/10/03 11:47:41;;;;;;;3.90;0.75;;;17.60;93.40;;;;;;5094026;28;20024;-73
2021/10/03 11:50:08;;;;;;;4.70;0.82;;;17.70;94.40;;;;;;5092388;28;20443;-71
2021/10/03 11:52:37;;;;;;;2.67;0.45;;;17.70;94.30;;;;;;5094167;28;20090;-71
2021/10/03 11:55:10;;;;;;;4.47;0.85;;;17.70;93.50;;;;;;5093594;28;20077;-73
2021/10/03 11:57:41;;;;;;;3.25;0.60;;;17.60;92.30;;;;;;5093835;28;20391;-73
2021/10/03 12:00:13;;;;;;;2.97;0.80;;;17.60;91.00;;;;;;5093790;28;20024;-71
2021/10/03 12:02:41;;;;;;;4.43;1.15;;;17.60;91.10;;;;;;5093487;28;20078;-71
2021/10/03 12:05:09;;;;;;;4.78;0.75;;;17.50;91.70;;;;;;5093905;28;20031;-72
2021/10/03 12:07:35;;;;;;;3.83;0.70;;;17.50;91.60;;;;;;5093415;28;20020;-71
2021/10/03 12:10:04;;;;;;;1.33;0.65;;;17.50;91.20;;;;;;5093195;28;20040;-72
2021/10/03 12:12:53;;;;;;;3.75;0.63;;;17.50;91.60;;;;;;5093336;28;20480;-72
2021/10/03 12:15:40;;;;;;;1.02;0.60;;;17.50;91.10;;;;;;5093333;28;20055;-72
2021/10/03 12:18:08;;;;;;;3.90;0.85;;;17.60;92.20;;;;;;5093598;28;20099;-71
2021/10/03 12:20:55;;;;;;;4.15;1.05;;;17.80;91.20;;;;;;5093346;28;20480;-71
2021/10/03 12:23:38;;;;;;;2.00;0.70;;;17.90;90.90;;;;;;5093530;28;20028;-72
2021/10/03 12:26:34;;;;;;;4.97;1.15;;;18.10;92.20;;;;;;5093138;28;20030;-73
2021/10/03 12:29:09;;;;;;;3.05;0.82;;;18.00;90.30;;;;;;5093636;28;20021;-72
2021/10/03 12:31:51;;;;;;;2.63;1.00;;;17.80;90.60;;;;;;5093729;28;20108;-71
2021/10/03 12:34:16;;;;;;;1.67;0.85;;;17.80;91.40;;;;;;5093182;28;20020;-71
2021/10/03 12:36:44;;;;;;;3.17;0.75;;;17.80;91.20;;;;;;5093669;28;20055;-71
2021/10/03 12:39:09;;;;;;;3.10;0.73;;;17.80;90.60;;;;;;5093410;28;20024;-72
2021/10/03 12:41:35;;;;;;;1.80;0.60;;;17.80;90.30;;;;;;5093646;28;20026;-73
2021/10/03 12:44:01;;;;;;;4.65;1.40;;;17.80;90.50;;;;;;5095418;28;20019;-73
2021/10/03 12:46:27;;;;;;;5.05;0.63;;;17.80;89.60;;;;;;5097039;28;20039;-71
2021/10/03 12:48:53;;;;;;;2.58;1.20;;;17.80;88.50;;;;;;5097017;28;20024;-71
2021/10/03 12:51:20;;;;;;;5.93;0.85;;;17.80;86.60;;;;;;5096975;28;20024;-73
2021/10/03 12:53:46;;;;;;;2.15;0.60;;;17.70;85.40;;;;;;5096948;28;20598;-71
2021/10/03 12:56:14;;;;;;;3.03;0.68;;;17.70;85.60;;;;;;5097168;28;20024;-71